sensor_id;sensor_type;location;lat;lon;timestamp;P1;durP1;ratioP1;P2;durP2;ratioP2
15526;SDS011;7865;50.918;4.510;2022-10-16T00:02:28;1.07;;;0.97;;
15526;SDS011;7865;50.918;4.510;2022-10-16T00:07:29;1.07;;;0.87;;
15526;SDS011;7865;50.918;4.510;2022-10-16T00:12:30;4.13;;;1.00;;
15526;SDS011;7865;50.918;4.510;2022-10-16T00:17:31;2.07;;;1.00;;
15526;SDS011;7865;50.918;4.510;2022-10-16T00:22:33;3.07;;;1.30;;
15526;SDS011;7865;50.918;4.510;2022-10-16T00:27:34;0.80;;;0.80;;
15526;SDS011;7865;50.918;4.510;2022-10-16T00:32:35;2.70;;;0.93;;
15526;SDS011;7865;50.918;4.510;2022-10-16T00:37:37;1.83;;;1.00;;
15526;SDS011;7865;50.918;4.510;2022-10-16T00:42:38;0.83;;;0.73;;
15526;SDS011;7865;50.918;4.510;2022-10-16T00:47:40;1.20;;;1.10;;
15526;SDS011;7865;50.918;4.510;2022-10-16T00:52:46;0.80;;;0.80;;
15526;SDS011;7865;50.918;4.510;2022-10-16T00:57:49;3.33;;;1.10;;
15526;SDS011;7865;50.918;4.510;2022-10-16T01:02:55;3.23;;;1.00;;
15526;SDS011;7865;50.918;4.510;2022-10-16T01:08:04;1.33;;;0.93;;
15526;SDS011;7865;50.918;4.510;2022-10-16T01:13:18;3.37;;;1.20;;
15526;SDS011;7865;50.918;4.510;2022-10-16T01:29:41;4.87;;;1.20;;
15526;SDS011;7865;50.918;4.510;2022-10-16T01:34:53;2.73;;;1.17;;
15526;SDS011;7865;50.918;4.510;2022-10-16T01:40:19;2.00;;;1.10;;
15526;SDS011;7865;50.918;4.510;2022-10-16T01:45:22;1.23;;;0.93;;
15526;SDS011;7865;50.918;4.510;2022-10-16T01:50:24;1.33;;;1.17;;
15526;SDS011;7865;50.918;4.510;2022-10-16T01:55:28;2.30;;;1.13;;
15526;SDS011;7865;50.918;4.510;2022-10-16T02:00:33;3.47;;;1.00;;
15526;SDS011;7865;50.918;4.510;2022-10-16T02:05:40;2.47;;;1.17;;
15526;SDS011;7865;50.918;4.510;2022-10-16T02:10:45;2.50;;;1.23;;
15526;SDS011;7865;50.918;4.510;2022-10-16T02:15:47;1.80;;;1.23;;
15526;SDS011;7865;50.918;4.510;2022-10-16T02:20:50;1.43;;;1.10;;
15526;SDS011;7865;50.918;4.510;2022-10-16T02:26:00;1.43;;;1.07;;
15526;SDS011;7865;50.918;4.510;2022-10-16T02:31:06;1.80;;;1.13;;
15526;SDS011;7865;50.918;4.510;2022-10-16T02:36:12;2.73;;;1.30;;
15526;SDS011;7865;50.918;4.510;2022-10-16T02:41:14;2.47;;;1.30;;
15526;SDS011;7865;50.918;4.510;2022-10-16T02:46:15;3.70;;;1.10;;
15526;SDS011;7865;50.918;4.510;2022-10-16T02:51:17;4.70;;;1.03;;
15526;SDS011;7865;50.918;4.510;2022-10-16T02:56:18;2.83;;;1.23;;
15526;SDS011;7865;50.918;4.510;2022-10-16T03:01:20;1.77;;;1.40;;
15526;SDS011;7865;50.918;4.510;2022-10-16T03:06:21;3.37;;;1.30;;
15526;SDS011;7865;50.918;4.510;2022-10-16T03:11:22;2.90;;;1.73;;
15526;SDS011;7865;50.918;4.510;2022-10-16T03:16:24;2.50;;;1.40;;
15526;SDS011;7865;50.918;4.510;2022-10-16T03:21:25;1.60;;;1.17;;
15526;SDS011;7865;50.918;4.510;2022-10-16T03:26:26;2.27;;;1.60;;
15526;SDS011;7865;50.918;4.510;2022-10-16T03:31:27;2.20;;;1.40;;
15526;SDS011;7865;50.918;4.510;2022-10-16T03:36:28;5.00;;;1.80;;
15526;SDS011;7865;50.918;4.510;2022-10-16T03:41:30;2.47;;;1.70;;
15526;SDS011;7865;50.918;4.510;2022-10-16T03:46:31;2.67;;;1.70;;
15526;SDS011;7865;50.918;4.510;2022-10-16T03:51:32;3.70;;;1.80;;
15526;SDS011;7865;50.918;4.510;2022-10-16T03:56:34;2.70;;;1.57;;
15526;SDS011;7865;50.918;4.510;2022-10-16T04:01:35;1.93;;;1.17;;
15526;SDS011;7865;50.918;4.510;2022-10-16T04:06:36;3.23;;;1.83;;
15526;SDS011;7865;50.918;4.510;2022-10-16T04:11:37;4.90;;;1.57;;
15526;SDS011;7865;50.918;4.510;2022-10-16T04:16:39;3.70;;;1.70;;
15526;SDS011;7865;50.918;4.510;2022-10-16T04:21:40;4.70;;;1.63;;
15526;SDS011;7865;50.918;4.510;2022-10-16T04:26:42;2.73;;;1.60;;
15526;SDS011;7865;50.918;4.510;2022-10-16T04:31:43;6.27;;;1.60;;
15526;SDS011;7865;50.918;4.510;2022-10-16T04:36:46;3.00;;;1.60;;
15526;SDS011;7865;50.918;4.510;2022-10-16T04:41:48;6.20;;;1.47;;
15526;SDS011;7865;50.918;4.510;2022-10-16T04:46:52;2.23;;;1.50;;
15526;SDS011;7865;50.918;4.510;2022-10-16T04:51:53;1.63;;;1.53;;
15526;SDS011;7865;50.918;4.510;2022-10-16T04:56:55;6.03;;;1.87;;
15526;SDS011;7865;50.918;4.510;2022-10-16T05:01:56;4.30;;;1.73;;
15526;SDS011;7865;50.918;4.510;2022-10-16T05:06:57;5.43;;;1.80;;
15526;SDS011;7865;50.918;4.510;2022-10-16T05:11:58;2.80;;;1.50;;
15526;SDS011;7865;50.918;4.510;2022-10-16T05:16:59;4.17;;;2.00;;
15526;SDS011;7865;50.918;4.510;2022-10-16T05:22:01;5.43;;;1.60;;
15526;SDS011;7865;50.918;4.510;2022-10-16T05:27:02;2.17;;;1.30;;
15526;SDS011;7865;50.918;4.510;2022-10-16T05:32:03;3.13;;;1.83;;
15526;SDS011;7865;50.918;4.510;2022-10-16T05:37:05;2.17;;;1.50;;
15526;SDS011;7865;50.918;4.510;2022-10-16T05:42:06;2.43;;;1.70;;
15526;SDS011;7865;50.918;4.510;2022-10-16T05:47:08;5.37;;;1.50;;
15526;SDS011;7865;50.918;4.510;2022-10-16T05:52:09;2.30;;;1.80;;
15526;SDS011;7865;50.918;4.510;2022-10-16T05:57:10;4.47;;;1.67;;
15526;SDS011;7865;50.918;4.510;2022-10-16T06:02:12;1.93;;;1.57;;
15526;SDS011;7865;50.918;4.510;2022-10-16T06:07:13;4.27;;;2.10;;
15526;SDS011;7865;50.918;4.510;2022-10-16T06:12:15;2.50;;;1.83;;
15526;SDS011;7865;50.918;4.510;2022-10-16T06:17:16;2.90;;;1.87;;
15526;SDS011;7865;50.918;4.510;2022-10-16T06:22:17;2.50;;;2.03;;
15526;SDS011;7865;50.918;4.510;2022-10-16T06:27:19;3.60;;;1.70;;
15526;SDS011;7865;50.918;4.510;2022-10-16T06:32:20;8.80;;;2.30;;
15526;SDS011;7865;50.918;4.510;2022-10-16T06:37:22;3.53;;;1.80;;
15526;SDS011;7865;50.918;4.510;2022-10-16T06:42:23;4.57;;;1.90;;
15526;SDS011;7865;50.918;4.510;2022-10-16T06:47:25;3.33;;;1.87;;
15526;SDS011;7865;50.918;4.510;2022-10-16T06:52:27;3.70;;;2.37;;
15526;SDS011;7865;50.918;4.510;2022-10-16T06:57:29;4.03;;;1.90;;
15526;SDS011;7865;50.918;4.510;2022-10-16T07:02:31;4.63;;;1.90;;
15526;SDS011;7865;50.918;4.510;2022-10-16T07:07:32;3.67;;;1.80;;
15526;SDS011;7865;50.918;4.510;2022-10-16T07:12:33;4.23;;;1.83;;
15526;SDS011;7865;50.918;4.510;2022-10-16T07:17:34;3.97;;;1.90;;
15526;SDS011;7865;50.918;4.510;2022-10-16T07:22:35;3.30;;;1.80;;
15526;SDS011;7865;50.918;4.510;2022-10-16T07:27:37;1.80;;;1.53;;
15526;SDS011;7865;50.918;4.510;2022-10-16T07:32:38;4.63;;;1.83;;
15526;SDS011;7865;50.918;4.510;2022-10-16T07:37:43;4.47;;;2.20;;
15526;SDS011;7865;50.918;4.510;2022-10-16T07:42:46;1.83;;;1.60;;
15526;SDS011;7865;50.918;4.510;2022-10-16T07:47:47;5.00;;;2.17;;
15526;SDS011;7865;50.918;4.510;2022-10-16T07:52:48;3.25;;;1.85;;
15526;SDS011;7865;50.918;4.510;2022-10-16T07:57:49;4.00;;;2.03;;
15526;SDS011;7865;50.918;4.510;2022-10-16T08:02:50;3.72;;;2.10;;
15526;SDS011;7865;50.918;4.510;2022-10-16T08:07:51;5.25;;;1.67;;
15526;SDS011;7865;50.918;4.510;2022-10-16T08:12:52;5.03;;;2.17;;
15526;SDS011;7865;50.918;4.510;2022-10-16T08:17:58;4.05;;;1.70;;
15526;SDS011;7865;50.918;4.510;2022-10-16T08:23:00;2.97;;;1.40;;
15526;SDS011;7865;50.918;4.510;2022-10-16T08:28:05;5.70;;;1.30;;
15526;SDS011;7865;50.918;4.510;2022-10-16T08:33:08;4.10;;;1.70;;
15526;SDS011;7865;50.918;4.510;2022-10-16T08:38:09;3.85;;;1.20;;
15526;SDS011;7865;50.918;4.510;2022-10-16T08:48:36;4.30;;;1.60;;
15526;SDS011;7865;50.918;4.510;2022-10-16T08:53:55;7.65;;;1.95;;
15526;SDS011;7865;50.918;4.510;2022-10-16T08:58:58;4.35;;;1.52;;
15526;SDS011;7865;50.918;4.510;2022-10-16T09:25:34;4.45;;;1.35;;
15526;SDS011;7865;50.918;4.510;2022-10-16T09:30:36;5.25;;;1.65;;
15526;SDS011;7865;50.918;4.510;2022-10-16T09:35:40;5.78;;;1.40;;
15526;SDS011;7865;50.918;4.510;2022-10-16T09:40:43;3.70;;;1.30;;
15526;SDS011;7865;50.918;4.510;2022-10-16T09:45:58;3.15;;;1.10;;
15526;SDS011;7865;50.918;4.510;2022-10-16T09:51:02;3.42;;;1.40;;
15526;SDS011;7865;50.918;4.510;2022-10-16T09:56:05;3.55;;;1.20;;
15526;SDS011;7865;50.918;4.510;2022-10-16T10:01:14;7.72;;;1.60;;
15526;SDS011;7865;50.918;4.510;2022-10-16T10:06:22;2.35;;;0.90;;
15526;SDS011;7865;50.918;4.510;2022-10-16T10:11:45;2.67;;;0.98;;
15526;SDS011;7865;50.918;4.510;2022-10-16T10:17:00;3.67;;;1.10;;
15526;SDS011;7865;50.918;4.510;2022-10-16T10:22:21;4.47;;;1.15;;
15526;SDS011;7865;50.918;4.510;2022-10-16T10:27:56;3.65;;;0.80;;
15526;SDS011;7865;50.918;4.510;2022-10-16T10:54:51;4.80;;;1.30;;
15526;SDS011;7865;50.918;4.510;2022-10-16T11:00:03;3.25;;;1.05;;
15526;SDS011;7865;50.918;4.510;2022-10-16T11:05:31;4.35;;;1.20;;
15526;SDS011;7865;50.918;4.510;2022-10-16T11:15:48;4.47;;;1.20;;
15526;SDS011;7865;50.918;4.510;2022-10-16T11:20:56;5.35;;;0.80;;
15526;SDS011;7865;50.918;4.510;2022-10-16T11:26:02;2.55;;;0.95;;
15526;SDS011;7865;50.918;4.510;2022-10-16T11:41:54;2.65;;;1.08;;
15526;SDS011;7865;50.918;4.510;2022-10-16T11:53:01;5.70;;;1.27;;
15526;SDS011;7865;50.918;4.510;2022-10-16T11:58:32;2.60;;;1.00;;
15526;SDS011;7865;50.918;4.510;2022-10-16T12:03:44;2.33;;;1.00;;
15526;SDS011;7865;50.918;4.510;2022-10-16T12:08:54;3.78;;;0.85;;
15526;SDS011;7865;50.918;4.510;2022-10-16T12:19:14;3.40;;;1.00;;
15526;SDS011;7865;50.918;4.510;2022-10-16T12:29:42;4.10;;;0.77;;
15526;SDS011;7865;50.918;4.510;2022-10-16T12:34:45;3.88;;;0.80;;
15526;SDS011;7865;50.918;4.510;2022-10-16T12:39:48;2.80;;;1.15;;
15526;SDS011;7865;50.918;4.510;2022-10-16T12:44:50;2.85;;;0.80;;
15526;SDS011;7865;50.918;4.510;2022-10-16T12:49:52;2.15;;;0.75;;
15526;SDS011;7865;50.918;4.510;2022-10-16T12:54:58;3.85;;;0.82;;
15526;SDS011;7865;50.918;4.510;2022-10-16T13:00:04;4.78;;;0.90;;
15526;SDS011;7865;50.918;4.510;2022-10-16T13:15:57;1.88;;;0.70;;
15526;SDS011;7865;50.918;4.510;2022-10-16T13:31:36;1.85;;;0.70;;
15526;SDS011;7865;50.918;4.510;2022-10-16T13:36:43;6.00;;;1.08;;
15526;SDS011;7865;50.918;4.510;2022-10-16T13:41:57;3.08;;;0.68;;
15526;SDS011;7865;50.918;4.510;2022-10-16T13:52:21;3.78;;;1.27;;
15526;SDS011;7865;50.918;4.510;2022-10-16T13:57:23;4.68;;;0.80;;
15526;SDS011;7865;50.918;4.510;2022-10-16T14:02:33;2.92;;;0.70;;
15526;SDS011;7865;50.918;4.510;2022-10-16T14:07:36;1.77;;;0.88;;
15526;SDS011;7865;50.918;4.510;2022-10-16T14:12:38;1.27;;;0.75;;
15526;SDS011;7865;50.918;4.510;2022-10-16T14:17:42;2.53;;;0.90;;
15526;SDS011;7865;50.918;4.510;2022-10-16T14:22:44;4.13;;;0.90;;
15526;SDS011;7865;50.918;4.510;2022-10-16T14:27:56;5.07;;;1.38;;
15526;SDS011;7865;50.918;4.510;2022-10-16T14:33:01;5.88;;;1.45;;
15526;SDS011;7865;50.918;4.510;2022-10-16T14:38:05;3.22;;;1.13;;
15526;SDS011;7865;50.918;4.510;2022-10-16T14:43:14;3.70;;;1.17;;
15526;SDS011;7865;50.918;4.510;2022-10-16T14:48:25;4.90;;;1.08;;
15526;SDS011;7865;50.918;4.510;2022-10-16T14:53:26;4.78;;;1.00;;
15526;SDS011;7865;50.918;4.510;2022-10-16T14:58:27;4.78;;;1.88;;
15526;SDS011;7865;50.918;4.510;2022-10-16T15:03:28;3.80;;;1.38;;
15526;SDS011;7865;50.918;4.510;2022-10-16T15:08:30;3.13;;;1.10;;
15526;SDS011;7865;50.918;4.510;2022-10-16T15:13:31;4.57;;;1.20;;
15526;SDS011;7865;50.918;4.510;2022-10-16T15:18:32;5.25;;;1.63;;
15526;SDS011;7865;50.918;4.510;2022-10-16T15:23:33;6.82;;;1.63;;
15526;SDS011;7865;50.918;4.510;2022-10-16T15:28:34;4.63;;;1.30;;
15526;SDS011;7865;50.918;4.510;2022-10-16T15:33:36;3.67;;;1.00;;
15526;SDS011;7865;50.918;4.510;2022-10-16T15:38:40;4.20;;;1.27;;
15526;SDS011;7865;50.918;4.510;2022-10-16T15:43:41;5.00;;;1.20;;
15526;SDS011;7865;50.918;4.510;2022-10-16T15:48:43;4.18;;;1.30;;
15526;SDS011;7865;50.918;4.510;2022-10-16T15:53:44;3.95;;;2.03;;
15526;SDS011;7865;50.918;4.510;2022-10-16T15:58:47;5.90;;;1.25;;
15526;SDS011;7865;50.918;4.510;2022-10-16T16:03:48;2.53;;;1.20;;
15526;SDS011;7865;50.918;4.510;2022-10-16T16:08:54;2.08;;;1.27;;
15526;SDS011;7865;50.918;4.510;2022-10-16T16:13:55;3.60;;;0.80;;
15526;SDS011;7865;50.918;4.510;2022-10-16T16:18:57;4.80;;;1.20;;
15526;SDS011;7865;50.918;4.510;2022-10-16T16:23:58;1.58;;;1.00;;
15526;SDS011;7865;50.918;4.510;2022-10-16T16:29:00;5.53;;;1.30;;
15526;SDS011;7865;50.918;4.510;2022-10-16T16:34:01;3.33;;;0.93;;
15526;SDS011;7865;50.918;4.510;2022-10-16T16:39:03;5.05;;;1.80;;
15526;SDS011;7865;50.918;4.510;2022-10-16T16:44:05;7.63;;;2.38;;
15526;SDS011;7865;50.918;4.510;2022-10-16T16:49:10;1.83;;;1.08;;
15526;SDS011;7865;50.918;4.510;2022-10-16T16:54:12;3.38;;;1.00;;
15526;SDS011;7865;50.918;4.510;2022-10-16T16:59:18;1.48;;;1.00;;
15526;SDS011;7865;50.918;4.510;2022-10-16T17:04:21;2.88;;;1.42;;
15526;SDS011;7865;50.918;4.510;2022-10-16T17:09:22;5.25;;;1.00;;
15526;SDS011;7865;50.918;4.510;2022-10-16T17:14:24;5.57;;;1.73;;
15526;SDS011;7865;50.918;4.510;2022-10-16T17:19:25;4.72;;;1.65;;
15526;SDS011;7865;50.918;4.510;2022-10-16T17:24:26;2.50;;;1.70;;
15526;SDS011;7865;50.918;4.510;2022-10-16T17:29:27;3.75;;;2.35;;
15526;SDS011;7865;50.918;4.510;2022-10-16T17:34:29;4.55;;;2.15;;
15526;SDS011;7865;50.918;4.510;2022-10-16T17:39:30;7.72;;;1.98;;
15526;SDS011;7865;50.918;4.510;2022-10-16T17:44:31;10.65;;;2.20;;
15526;SDS011;7865;50.918;4.510;2022-10-16T17:49:33;4.05;;;2.25;;
15526;SDS011;7865;50.918;4.510;2022-10-16T17:54:34;6.40;;;2.50;;
15526;SDS011;7865;50.918;4.510;2022-10-16T17:59:35;7.68;;;2.47;;
15526;SDS011;7865;50.918;4.510;2022-10-16T18:04:37;4.55;;;2.60;;
15526;SDS011;7865;50.918;4.510;2022-10-16T18:09:38;4.80;;;3.00;;
15526;SDS011;7865;50.918;4.510;2022-10-16T18:14:59;7.13;;;2.50;;
15526;SDS011;7865;50.918;4.510;2022-10-16T18:20:02;3.97;;;2.47;;
15526;SDS011;7865;50.918;4.510;2022-10-16T18:25:06;3.35;;;2.55;;
15526;SDS011;7865;50.918;4.510;2022-10-16T18:30:08;6.28;;;3.50;;
15526;SDS011;7865;50.918;4.510;2022-10-16T18:35:09;4.22;;;3.33;;
15526;SDS011;7865;50.918;4.510;2022-10-16T18:40:11;7.53;;;4.10;;
15526;SDS011;7865;50.918;4.510;2022-10-16T18:45:12;10.23;;;4.63;;
15526;SDS011;7865;50.918;4.510;2022-10-16T18:50:13;7.22;;;5.28;;
15526;SDS011;7865;50.918;4.510;2022-10-16T18:55:14;9.73;;;5.50;;
15526;SDS011;7865;50.918;4.510;2022-10-16T19:00:16;8.63;;;5.00;;
15526;SDS011;7865;50.918;4.510;2022-10-16T19:05:17;6.45;;;4.85;;
15526;SDS011;7865;50.918;4.510;2022-10-16T19:10:18;8.48;;;4.47;;
15526;SDS011;7865;50.918;4.510;2022-10-16T19:15:19;8.57;;;4.53;;
15526;SDS011;7865;50.918;4.510;2022-10-16T19:20:22;8.32;;;5.05;;
15526;SDS011;7865;50.918;4.510;2022-10-16T19:25:23;7.50;;;5.25;;
15526;SDS011;7865;50.918;4.510;2022-10-16T19:30:24;10.50;;;6.43;;
15526;SDS011;7865;50.918;4.510;2022-10-16T19:35:25;8.45;;;6.63;;
15526;SDS011;7865;50.918;4.510;2022-10-16T19:40:27;10.68;;;6.22;;
15526;SDS011;7865;50.918;4.510;2022-10-16T19:45:28;8.63;;;6.10;;
15526;SDS011;7865;50.918;4.510;2022-10-16T19:50:29;9.27;;;6.50;;
15526;SDS011;7865;50.918;4.510;2022-10-16T19:55:30;7.88;;;6.28;;
15526;SDS011;7865;50.918;4.510;2022-10-16T20:00:31;8.27;;;6.43;;
15526;SDS011;7865;50.918;4.510;2022-10-16T20:05:33;6.95;;;6.07;;
15526;SDS011;7865;50.918;4.510;2022-10-16T20:10:34;8.95;;;6.80;;
15526;SDS011;7865;50.918;4.510;2022-10-16T20:15:36;9.90;;;6.72;;
15526;SDS011;7865;50.918;4.510;2022-10-16T20:20:37;9.80;;;7.47;;
15526;SDS011;7865;50.918;4.510;2022-10-16T20:25:40;13.23;;;9.45;;
15526;SDS011;7865;50.918;4.510;2022-10-16T20:30:43;12.25;;;8.10;;
15526;SDS011;7865;50.918;4.510;2022-10-16T20:35:46;9.05;;;7.82;;
15526;SDS011;7865;50.918;4.510;2022-10-16T20:40:49;13.93;;;9.60;;
15526;SDS011;7865;50.918;4.510;2022-10-16T20:45:57;9.40;;;7.80;;
15526;SDS011;7865;50.918;4.510;2022-10-16T20:51:09;9.57;;;6.68;;
15526;SDS011;7865;50.918;4.510;2022-10-16T20:56:12;11.65;;;7.25;;
15526;SDS011;7865;50.918;4.510;2022-10-16T21:01:16;10.93;;;7.63;;
15526;SDS011;7865;50.918;4.510;2022-10-16T21:06:22;9.57;;;7.73;;
15526;SDS011;7865;50.918;4.510;2022-10-16T21:11:25;10.70;;;8.02;;
15526;SDS011;7865;50.918;4.510;2022-10-16T21:16:27;11.47;;;7.47;;
15526;SDS011;7865;50.918;4.510;2022-10-16T21:21:30;10.03;;;8.37;;
15526;SDS011;7865;50.918;4.510;2022-10-16T21:26:32;10.00;;;8.27;;
15526;SDS011;7865;50.918;4.510;2022-10-16T21:31:34;9.40;;;7.55;;
15526;SDS011;7865;50.918;4.510;2022-10-16T21:36:36;10.47;;;8.00;;
15526;SDS011;7865;50.918;4.510;2022-10-16T21:41:40;8.68;;;7.78;;
15526;SDS011;7865;50.918;4.510;2022-10-16T21:46:42;9.27;;;8.30;;
15526;SDS011;7865;50.918;4.510;2022-10-16T21:51:48;11.20;;;8.17;;
15526;SDS011;7865;50.918;4.510;2022-10-16T21:56:50;8.77;;;7.87;;
15526;SDS011;7865;50.918;4.510;2022-10-16T22:01:52;14.90;;;8.83;;
15526;SDS011;7865;50.918;4.510;2022-10-16T22:06:54;11.50;;;8.10;;
15526;SDS011;7865;50.918;4.510;2022-10-16T22:11:55;10.17;;;7.40;;
15526;SDS011;7865;50.918;4.510;2022-10-16T22:16:57;11.93;;;7.90;;
15526;SDS011;7865;50.918;4.510;2022-10-16T22:21:58;10.33;;;8.13;;
15526;SDS011;7865;50.918;4.510;2022-10-16T22:27:01;10.17;;;7.93;;
15526;SDS011;7865;50.918;4.510;2022-10-16T22:32:02;9.27;;;7.23;;
15526;SDS011;7865;50.918;4.510;2022-10-16T22:37:03;9.87;;;7.73;;
15526;SDS011;7865;50.918;4.510;2022-10-16T22:42:04;10.73;;;7.73;;
15526;SDS011;7865;50.918;4.510;2022-10-16T22:47:06;11.90;;;8.70;;
15526;SDS011;7865;50.918;4.510;2022-10-16T22:52:07;10.03;;;8.90;;
15526;SDS011;7865;50.918;4.510;2022-10-16T22:57:08;12.20;;;9.07;;
15526;SDS011;7865;50.918;4.510;2022-10-16T23:02:09;10.30;;;7.53;;
15526;SDS011;7865;50.918;4.510;2022-10-16T23:07:10;13.03;;;8.23;;
15526;SDS011;7865;50.918;4.510;2022-10-16T23:12:11;11.43;;;8.00;;
15526;SDS011;7865;50.918;4.510;2022-10-16T23:17:12;9.77;;;7.70;;
15526;SDS011;7865;50.918;4.510;2022-10-16T23:22:13;10.70;;;8.77;;
15526;SDS011;7865;50.918;4.510;2022-10-16T23:27:15;10.60;;;8.15;;
15526;SDS011;7865;50.918;4.510;2022-10-16T23:32:16;13.03;;;8.93;;
15526;SDS011;7865;50.918;4.510;2022-10-16T23:37:17;15.33;;;8.77;;
15526;SDS011;7865;50.918;4.510;2022-10-16T23:42:23;13.67;;;9.17;;
15526;SDS011;7865;50.918;4.510;2022-10-16T23:47:24;11.13;;;9.00;;
15526;SDS011;7865;50.918;4.510;2022-10-16T23:52:26;11.77;;;8.80;;
15526;SDS011;7865;50.918;4.510;2022-10-16T23:57:27;10.47;;;7.90;;
